Time;durP1;ratioP1;P1;durP2;ratioP2;P2;SDS_P1;SDS_P2;PMS_P1;PMS_P2;Temp;Humidity;BMP_temperature;BMP_pressure;BME280_temperature;BME280_humidity;BME280_pressure;Samples;Min_cycle;Max_cycle;Signal;HPM_P1;HPM_P2
2022/12/12 00:01:44;;;;;;;31.02;15.52;;;;;;;-0.58;89.62;100886.13;5033891;28;20052;-76
2022/12/12 00:04:10;;;;;;;32.92;15.85;;;;;;;-0.59;89.34;100897.56;5053968;28;20025;-76
2022/12/12 00:06:36;;;;;;;30.95;15.05;;;;;;;-0.63;89.43;100898.56;5051131;28;20047;-76
2022/12/12 00:09:02;;;;;;;31.08;15.02;;;;;;;-0.65;89.51;100903.03;5054289;28;20021;-75
2022/12/12 00:11:28;;;;;;;31.02;15.70;;;;;;;-0.67;89.59;100896.88;5053403;28;20028;-76
2022/12/12 00:13:54;;;;;;;30.30;15.02;;;;;;;-0.68;90.44;100900.47;5051944;28;20032;-76
2022/12/12 00:16:20;;;;;;;30.88;15.50;;;;;;;-0.68;90.02;100903.09;5054063;28;20506;-76
2022/12/12 00:18:46;;;;;;;31.65;15.23;;;;;;;-0.69;89.54;100894.28;5053922;28;20028;-76
2022/12/12 00:21:21;;;;;;;35.20;15.80;;;;;;;-0.72;89.54;100889.97;5052947;28;20021;-76
2022/12/12 00:23:46;;;;;;;32.13;15.15;;;;;;;-0.76;89.81;100898.00;5042849;28;20017;-76
2022/12/12 00:26:20;;;;;;;31.17;14.93;;;;;;;-0.79;89.76;100895.44;5036426;28;20024;-76
2022/12/12 00:28:46;;;;;;;29.33;13.43;;;;;;;-0.86;89.38;100893.84;5053493;28;20051;-76
2022/12/12 00:31:12;;;;;;;32.30;15.60;;;;;;;-0.92;89.46;100902.81;5043418;28;20025;-76
2022/12/12 00:33:38;;;;;;;33.40;16.55;;;;;;;-0.98;89.92;100905.59;5048755;28;20025;-76
2022/12/12 00:36:04;;;;;;;30.25;13.23;;;;;;;-1.01;89.97;100900.38;5049670;28;20128;-76
2022/12/12 00:38:29;;;;;;;32.75;17.10;;;;;;;-1.03;90.26;100904.84;5051284;28;20116;-76
2022/12/12 00:40:59;;;;;;;31.00;15.93;;;;;;;-1.05;90.72;100896.97;5051496;28;20033;-76
2022/12/12 00:43:25;;;;;;;;;;;;;;;-0.95;89.86;100905.50;5052565;28;20024;-76
2022/12/12 00:45:51;;;;;;;33.25;15.90;;;;;;;-1.06;90.42;100911.06;5052133;28;19913;-76
2022/12/12 00:48:17;;;;;;;34.05;15.85;;;;;;;-1.09;90.53;100906.72;5051528;28;20024;-76
2022/12/12 00:50:43;;;;;;;34.85;17.13;;;;;;;-1.12;90.48;100908.56;5052731;28;20048;-76
2022/12/12 00:53:08;;;;;;;34.10;15.90;;;;;;;-1.15;90.78;100904.22;5052706;28;20036;-76
2022/12/12 00:55:34;;;;;;;33.08;16.15;;;;;;;-1.18;90.62;100908.72;5052295;28;20056;-76
2022/12/12 00:57:59;;;;;;;31.60;16.98;;;;;;;-1.23;90.85;100909.69;5042217;28;20111;-76
2022/12/12 01:00:25;;;;;;;29.42;14.48;;;;;;;-1.23;90.71;100912.34;5029089;28;20408;-76
2022/12/12 01:02:50;;;;;;;31.33;15.60;;;;;;;-1.22;91.41;100918.47;5027440;28;20027;-76
2022/12/12 01:05:16;;;;;;;35.70;16.85;;;;;;;-1.21;91.33;100922.00;5053690;28;20025;-76
2022/12/12 01:07:42;;;;;;;34.63;17.95;;;;;;;-1.22;92.03;100915.81;5048837;28;20021;-76
2022/12/12 01:10:08;;;;;;;29.45;14.85;;;;;;;-1.23;91.18;100916.72;5053539;28;20033;-76
2022/12/12 01:12:34;;;;;;;33.33;15.90;;;;;;;-1.25;91.42;100919.38;5035449;28;20456;-76
2022/12/12 01:14:59;;;;;;;30.77;15.20;;;;;;;-1.27;91.16;100926.50;5052382;28;20056;-76
2022/12/12 01:17:24;;;;;;;32.05;14.52;;;;;;;-1.26;91.38;100930.88;5052667;28;20064;-76
2022/12/12 01:19:50;;;;;;;33.33;17.13;;;;;;;-1.27;91.13;100925.63;5053959;28;20104;-76
2022/12/12 01:22:15;;;;;;;31.52;14.98;;;;;;;-1.28;90.94;100931.78;5053988;28;20033;-76
2022/12/12 01:24:41;;;;;;;30.90;15.15;;;;;;;-1.30;90.96;100929.19;5053284;28;20021;-76
2022/12/12 01:27:06;;;;;;;34.95;15.65;;;;;;;-1.33;91.00;100939.81;5035380;28;20042;-76
2022/12/12 01:29:35;;;;;;;32.47;14.73;;;;;;;-1.37;90.39;100937.28;5052108;28;20064;-76
2022/12/12 01:32:00;;;;;;;32.73;16.30;;;;;;;-1.39;91.09;100936.44;5053766;28;20362;-76
2022/12/12 01:34:26;;;;;;;34.35;16.80;;;;;;;-1.43;91.09;100943.56;5052756;28;20058;-76
2022/12/12 01:36:51;;;;;;;30.00;15.38;;;;;;;-1.45;91.55;100946.22;5047923;28;20494;-76
2022/12/12 01:39:16;;;;;;;35.60;16.23;;;;;;;-1.46;91.52;100947.13;5052881;28;20029;-76
2022/12/12 01:41:43;;;;;;;33.10;15.65;;;;;;;-1.47;91.51;100953.28;5053380;28;20286;-76
2022/12/12 01:44:38;;;;;;;36.95;16.38;;;;;;;-1.44;91.66;100952.38;5053003;28;20028;-76
2022/12/12 01:47:04;;;;;;;32.83;15.18;;;;;;;-1.52;90.79;100952.53;5033811;28;20415;-76
2022/12/12 01:49:32;;;;;;;30.27;15.20;;;;;;;-1.54;90.97;100951.69;5053550;28;20025;-76
2022/12/12 01:52:07;;;;;;;29.98;15.98;;;;;;;-1.56;91.10;100950.88;5053222;28;20025;-76
2022/12/12 01:54:48;;;;;;;38.05;15.95;;;;;;;-1.58;91.39;100961.44;5052813;28;20037;-76
2022/12/12 01:57:24;;;;;;;35.70;17.52;;;;;;;-1.59;91.09;100959.69;5053038;28;20032;-76
2022/12/12 01:59:49;;;;;;;30.70;14.75;;;;;;;-1.59;91.38;100958.84;5051452;28;20087;-76
2022/12/12 02:02:15;;;;;;;35.13;15.63;;;;;;;-1.59;91.50;100964.09;5051308;28;20472;-76
2022/12/12 02:04:41;;;;;;;32.20;16.55;;;;;;;-1.60;91.47;100968.53;5059287;28;20033;-74
2022/12/12 02:07:07;;;;;;;38.03;16.85;;;;;;;-1.63;91.23;100968.56;5060861;28;20041;-74
2022/12/12 02:09:34;;;;;;;33.60;16.73;;;;;;;-1.64;91.11;100971.22;5045502;28;20044;-74
2022/12/12 02:12:00;;;;;;;33.33;16.65;;;;;;;-1.66;91.07;100965.13;5063276;28;20024;-73
2022/12/12 02:14:29;;;;;;;40.47;15.93;;;;;;;-1.69;90.84;100967.84;5046115;28;20105;-74
2022/12/12 02:17:03;;;;;;;31.90;16.63;;;;;;;-1.70;90.81;100968.72;5063151;28;20059;-73
2022/12/12 02:20:06;;;;;;;33.83;16.98;;;;;;;-1.70;91.14;100968.72;5062678;28;20026;-74
2022/12/12 02:23:10;;;;;;;32.00;14.95;;;;;;;-1.73;91.03;100967.00;5044387;28;20039;-74
2022/12/12 02:25:50;;;;;;;32.85;16.25;;;;;;;-1.76;91.31;100965.34;5065873;28;20029;-74
2022/12/12 02:28:24;;;;;;;34.88;16.15;;;;;;;-1.78;91.39;100971.53;5047890;28;20033;-74
2022/12/12 02:31:14;;;;;;;32.70;15.60;;;;;;;-1.79;91.20;100969.78;5065323;28;20041;-73
2022/12/12 02:34:04;;;;;;;30.15;14.77;;;;;;;-1.81;91.54;100969.81;5065192;28;20485;-74
2022/12/12 02:37:05;;;;;;;31.67;15.38;;;;;;;-1.78;91.16;100975.00;5062405;28;20069;-74
2022/12/12 02:40:12;;;;;;;35.42;16.23;;;;;;;-1.77;90.71;100981.19;5047755;28;20104;-73
2022/12/12 02:42:43;;;;;;;33.00;16.27;;;;;;;-1.83;90.99;100981.28;4998267;28;20037;-73
2022/12/12 02:45:38;;;;;;;34.22;15.05;;;;;;;-1.87;90.58;100975.22;5005984;28;20034;-74
2022/12/12 02:48:33;;;;;;;32.55;15.73;;;;;;;-1.88;90.70;100973.47;4995443;28;20513;-74
2022/12/12 02:51:03;;;;;;;33.28;15.82;;;;;;;-1.93;90.82;100975.34;4910810;29;20103;-73
2022/12/12 02:53:28;;;;;;;29.38;14.07;;;;;;;-1.93;90.95;100972.69;4909226;29;20051;-74
2022/12/12 02:56:39;;;;;;;30.33;15.18;;;;;;;-1.92;90.58;100970.94;4908870;29;20060;-73
2022/12/12 02:59:04;;;;;;;36.17;17.95;;;;;;;-1.98;90.63;100974.53;4907314;29;20475;-74
2022/12/12 03:01:37;;;;;;;34.20;16.50;;;;;;;-2.00;90.88;100978.97;4913248;29;20040;-76
2022/12/12 03:10:18;;;;;;;30.02;15.18;;;;;;;-2.13;90.11;100968.66;4914269;29;20039;-75
2022/12/12 03:13:21;;;;;;;31.50;15.50;;;;;;;-2.14;90.09;100963.44;4926742;29;20102;-74
2022/12/12 03:16:12;;;;;;;32.65;16.52;;;;;;;-2.18;90.16;100969.66;4976020;28;20109;-74
2022/12/12 03:18:58;;;;;;;33.78;15.98;;;;;;;-2.24;90.04;100970.66;4977775;28;20059;-73
2022/12/12 03:21:47;;;;;;;32.38;15.43;;;;;;;-2.26;89.43;100959.25;4963550;29;20082;-74
2022/12/12 03:24:25;;;;;;;32.77;14.90;;;;;;;-2.29;89.71;100965.44;4953915;28;20058;-74
2022/12/12 03:27:07;;;;;;;31.75;14.98;;;;;;;-2.30;90.18;100960.22;4978061;28;20321;-73
2022/12/12 03:29:48;;;;;;;30.60;15.38;;;;;;;-2.30;90.29;100961.09;5045632;28;20075;-74
2022/12/12 03:32:23;;;;;;;36.55;14.45;;;;;;;-2.30;90.52;100954.94;5045097;28;20032;-74
2022/12/12 03:34:55;;;;;;;32.95;15.48;;;;;;;-2.34;90.32;100959.41;5064522;28;20036;-74
2022/12/12 03:37:28;;;;;;;29.73;13.88;;;;;;;-2.36;90.28;100960.34;5053721;28;20057;-73
2022/12/12 03:40:00;;;;;;;31.70;15.02;;;;;;;-2.39;90.38;100955.13;5063660;28;20039;-74
2022/12/12 03:42:32;;;;;;;31.42;15.27;;;;;;;-2.39;90.49;100957.75;5060792;28;20036;-74
2022/12/12 03:45:15;;;;;;;30.52;14.95;;;;;;;-2.42;89.88;100956.03;5064447;28;20039;-74
2022/12/12 03:47:46;;;;;;;30.05;14.80;;;;;;;-2.44;89.80;100967.50;5044445;28;20029;-75
2022/12/12 03:50:18;;;;;;;32.88;13.80;;;;;;;-2.48;90.09;100964.06;5062817;28;20028;-74
2022/12/12 03:52:58;;;;;;;32.13;14.93;;;;;;;-2.51;89.73;100966.75;5061392;28;20045;-74
2022/12/12 03:55:26;;;;;;;;;;;;;;;-2.44;89.60;100963.09;5064145;28;20068;-75
2022/12/12 03:58:23;;;;;;;35.13;16.63;;;;;;;-2.53;89.59;100960.66;5060402;28;19924;-73
2022/12/12 04:00:52;;;;;;;31.65;14.50;;;;;;;-2.61;89.11;100968.66;5055216;28;20052;-75
2022/12/12 04:03:23;;;;;;;31.48;15.15;;;;;;;-2.63;89.77;100970.44;5056859;28;20036;-75
2022/12/12 04:14:52;;;;;;;30.90;15.35;;;;;;;-2.75;88.72;100970.63;5049789;28;20058;-75
2022/12/12 04:17:24;;;;;;;29.50;14.90;;;;;;;-2.79;89.62;100967.19;5063318;28;20029;-73
2022/12/12 04:23:15;;;;;;;38.72;16.80;;;;;;;-2.84;89.01;100972.53;5062273;28;20527;-73
2022/12/12 04:29:21;;;;;;;31.40;13.27;;;;;;;-2.93;89.01;100985.81;5061305;28;20075;-75
2022/12/12 04:31:53;;;;;;;32.45;15.50;;;;;;;-2.99;88.41;100986.81;5062819;28;20024;-74
2022/12/12 04:34:30;;;;;;;32.65;15.95;;;;;;;-3.00;88.20;100994.72;5062856;28;20526;-74
2022/12/12 04:36:56;;;;;;;38.42;14.38;;;;;;;-3.04;87.90;100993.03;5061219;28;20032;-74
2022/12/12 04:39:23;;;;;;;33.50;15.73;;;;;;;-3.07;88.03;100995.69;5056971;28;20021;-74
2022/12/12 04:41:52;;;;;;;35.80;15.05;;;;;;;-3.10;87.61;101004.50;5060701;28;20029;-74
2022/12/12 04:44:20;;;;;;;33.90;15.35;;;;;;;-3.11;88.12;101002.75;5060711;28;20059;-75
2022/12/12 04:46:49;;;;;;;35.63;15.52;;;;;;;-3.14;87.90;101007.19;5059473;28;20089;-74
2022/12/12 04:49:19;;;;;;;26.35;14.77;;;;;;;-3.16;87.91;101004.59;5058765;28;20017;-73
2022/12/12 04:51:50;;;;;;;31.23;13.57;;;;;;;-3.20;87.88;101000.25;5059686;28;20021;-73
2022/12/12 04:54:40;;;;;;;34.85;16.38;;;;;;;-3.18;88.61;101004.59;5059905;28;20074;-75
2022/12/12 04:57:09;;;;;;;30.50;13.55;;;;;;;-3.23;88.19;101003.78;5060069;28;20028;-73
2022/12/12 04:59:35;;;;;;;32.10;14.50;;;;;;;-3.24;88.31;101009.91;5042765;28;20032;-73
2022/12/12 05:02:16;;;;;;;32.55;14.82;;;;;;;-3.23;88.48;101009.03;5048899;28;20120;-73
2022/12/12 05:04:50;;;;;;;30.77;14.20;;;;;;;-3.22;88.96;100996.75;5055586;28;20032;-74
2022/12/12 05:07:25;;;;;;;32.88;14.43;;;;;;;-3.23;88.72;100997.66;5056098;28;20032;-74
2022/12/12 05:09:51;;;;;;;32.22;15.25;;;;;;;-3.21;89.18;100998.50;5060372;28;20109;-73
2022/12/12 05:12:16;;;;;;;36.72;15.25;;;;;;;-3.21;88.98;100999.38;5059517;28;20057;-74
2022/12/12 05:14:42;;;;;;;34.50;14.02;;;;;;;-3.23;88.29;101003.78;5059760;28;20411;-74
2022/12/12 05:17:13;;;;;;;31.23;15.13;;;;;;;-3.26;88.22;101001.19;5058679;28;20040;-75
2022/12/12 05:19:39;;;;;;;28.55;14.05;;;;;;;-3.29;87.82;101003.88;5042320;28;20025;-74
2022/12/12 05:22:04;;;;;;;32.20;13.77;;;;;;;-3.34;87.26;101003.06;5059142;28;20079;-73
2022/12/12 05:24:30;;;;;;;31.60;14.48;;;;;;;-3.38;87.24;101006.63;5060815;28;20039;-73
2022/12/12 05:26:59;;;;;;;43.65;15.70;;;;;;;-3.46;87.38;101006.72;5058996;28;20091;-74
2022/12/12 05:29:24;;;;;;;31.15;12.57;;;;;;;-3.49;87.17;101006.75;5059517;28;20053;-75
2022/12/12 05:31:50;;;;;;;32.13;14.68;;;;;;;-3.52;87.54;101002.41;5058851;28;20121;-74
2022/12/12 05:34:15;;;;;;;33.83;14.18;;;;;;;-3.55;87.44;101002.44;5041932;28;20037;-74
2022/12/12 05:36:40;;;;;;;33.35;14.27;;;;;;;-3.56;87.66;101007.72;5057615;28;20399;-75
2022/12/12 05:39:06;;;;;;;32.03;13.35;;;;;;;-3.58;88.09;101005.13;5059088;28;20021;-74
2022/12/12 05:41:31;;;;;;;33.22;15.65;;;;;;;-3.56;88.36;101008.63;5058900;28;20439;-74
2022/12/12 05:43:56;;;;;;;34.72;15.77;;;;;;;-3.56;88.85;101015.59;5059236;28;20075;-74
2022/12/12 05:46:22;;;;;;;31.88;14.90;;;;;;;-3.54;88.72;101011.22;5058203;28;20029;-73
2022/12/12 05:48:50;;;;;;;34.25;14.82;;;;;;;-3.55;88.74;101012.97;5051838;28;20079;-73
2022/12/12 05:51:20;;;;;;;31.88;14.32;;;;;;;-3.53;89.30;101016.44;5038457;28;20492;-75
2022/12/12 05:53:46;;;;;;;32.88;15.40;;;;;;;-3.52;88.68;101012.06;5059183;28;20031;-74
2022/12/12 05:56:12;;;;;;;34.13;16.25;;;;;;;-3.55;88.41;101012.97;5057683;28;20093;-74
2022/12/12 05:58:41;;;;;;;32.47;14.07;;;;;;;-3.54;88.26;101013.84;5055328;28;20057;-73
2022/12/12 06:01:07;;;;;;;32.60;14.60;;;;;;;-3.53;88.18;101015.56;5051317;28;20039;-74
2022/12/12 06:03:32;;;;;;;26.92;12.50;;;;;;;-3.54;87.75;101014.69;5057447;28;20392;-73
2022/12/12 06:05:58;;;;;;;36.75;14.15;;;;;;;-3.56;87.89;101021.75;5040950;28;20023;-75
2022/12/12 06:08:23;;;;;;;31.08;14.95;;;;;;;-3.59;87.68;101024.38;5059582;28;20032;-73
2022/12/12 06:10:48;;;;;;;34.65;15.65;;;;;;;-3.59;87.45;101018.28;5043584;28;20026;-74
2022/12/12 06:13:14;;;;;;;33.90;14.63;;;;;;;-3.62;87.36;101023.56;5034770;28;20017;-74
2022/12/12 06:15:39;;;;;;;29.05;13.10;;;;;;;-3.64;87.12;101028.84;5062286;28;20021;-73
2022/12/12 06:18:05;;;;;;;31.63;13.38;;;;;;;-3.66;86.54;101033.25;5063706;28;20025;-74
2022/12/12 06:20:31;;;;;;;36.40;16.48;;;;;;;-3.68;87.24;101032.38;5063067;28;20021;-74
2022/12/12 06:22:56;;;;;;;31.23;14.07;;;;;;;-3.69;87.24;101031.53;5063681;28;20024;-74
2022/12/12 06:25:22;;;;;;;30.45;14.30;;;;;;;-3.74;87.53;101025.44;5044967;28;20079;-74
2022/12/12 06:27:47;;;;;;;29.23;14.70;;;;;;;-3.75;87.91;101030.72;5063373;28;20567;-74
2022/12/12 06:30:12;;;;;;;34.20;14.07;;;;;;;-3.76;88.30;101035.09;5044225;28;20045;-74
2022/12/12 06:32:38;;;;;;;31.70;13.48;;;;;;;-3.75;87.72;101031.59;5043761;28;20048;-74
2022/12/12 06:35:03;;;;;;;31.95;15.50;;;;;;;-3.76;87.94;101031.63;5056449;28;20032;-73
2022/12/12 06:37:29;;;;;;;30.73;13.23;;;;;;;-3.78;88.45;101038.63;5058478;28;20051;-74
2022/12/12 06:39:54;;;;;;;31.83;14.27;;;;;;;-3.74;88.75;101033.31;5062610;28;20068;-73
2022/12/12 06:42:19;;;;;;;31.27;13.68;;;;;;;-3.72;88.76;101025.41;5060025;28;20029;-75
2022/12/12 06:44:45;;;;;;;32.50;13.15;;;;;;;-3.71;89.07;101032.41;5057883;28;20369;-73
2022/12/12 06:47:10;;;;;;;32.00;13.52;;;;;;;-3.69;89.17;101035.88;5053417;28;20559;-74
2022/12/12 06:49:36;;;;;;;34.05;16.65;;;;;;;-3.67;89.02;101039.38;5057097;28;20067;-73
2022/12/12 06:52:01;;;;;;;33.45;14.23;;;;;;;-3.62;89.32;101041.94;5056761;28;20547;-74
2022/12/12 06:54:26;;;;;;;35.05;13.73;;;;;;;-3.60;89.19;101043.69;5056986;28;20056;-73
2022/12/12 06:56:52;;;;;;;32.63;13.38;;;;;;;-3.58;88.98;101043.66;5039119;28;20531;-74
2022/12/12 06:59:17;;;;;;;31.70;14.02;;;;;;;-3.57;89.18;101046.28;5058423;28;20029;-74
2022/12/12 07:01:43;;;;;;;31.85;13.70;;;;;;;-3.56;89.18;101050.66;5032825;28;20124;-73
2022/12/12 07:04:11;;;;;;;33.70;13.90;;;;;;;-3.54;89.06;101042.75;5065536;28;20443;-71
2022/12/12 07:06:36;;;;;;;38.92;13.80;;;;;;;-3.53;89.24;101041.84;5066385;28;20022;-71
2022/12/12 07:09:02;;;;;;;31.00;14.43;;;;;;;-3.53;88.84;101047.09;5065302;28;20051;-72
2022/12/12 07:11:28;;;;;;;34.38;14.18;;;;;;;-3.51;88.49;101047.97;5068634;28;20024;-73
2022/12/12 07:13:55;;;;;;;32.20;15.02;;;;;;;-3.53;88.37;101058.50;5077575;28;20013;-72
2022/12/12 07:16:21;;;;;;;33.60;13.90;;;;;;;-3.53;88.84;101053.22;5069897;28;20021;-74
2022/12/12 07:18:47;;;;;;;34.25;12.80;;;;;;;-3.54;88.60;101056.75;5060623;28;20503;-71
2022/12/12 07:21:16;;;;;;;34.63;12.90;;;;;;;-3.55;88.05;101059.38;5066841;28;20021;-72
2022/12/12 07:23:42;;;;;;;30.85;13.02;;;;;;;-3.56;88.24;101058.53;5061623;28;20456;-72
2022/12/12 07:26:14;;;;;;;31.50;14.00;;;;;;;-3.55;88.24;101067.28;5061073;28;20025;-73
2022/12/12 07:28:39;;;;;;;32.55;13.05;;;;;;;-3.57;87.93;101071.69;5067032;28;20033;-72
2022/12/12 07:31:09;;;;;;;32.08;13.05;;;;;;;-3.60;87.79;101071.69;5058963;28;20020;-74
2022/12/12 07:33:35;;;;;;;31.77;12.75;;;;;;;-3.63;87.44;101071.72;5067008;28;20036;-74
2022/12/12 07:36:01;;;;;;;31.10;13.68;;;;;;;-3.65;86.87;101079.63;5063818;28;20036;-74
2022/12/12 07:38:27;;;;;;;33.67;15.00;;;;;;;-3.69;86.87;101078.81;5063094;28;20041;-73
2022/12/12 07:40:52;;;;;;;30.90;13.02;;;;;;;-3.72;86.94;101078.84;5064674;28;20040;-73
2022/12/12 07:43:18;;;;;;;31.52;12.65;;;;;;;-3.73;86.49;101092.00;5067219;28;20076;-72
2022/12/12 07:45:44;;;;;;;32.72;12.50;;;;;;;-3.76;86.38;101090.25;5067251;28;20033;-73
2022/12/12 07:48:10;;;;;;;35.38;13.10;;;;;;;-3.83;86.54;101088.56;5065238;28;20040;-72
2022/12/12 07:50:37;;;;;;;33.17;15.13;;;;;;;-3.90;85.88;101095.63;5066756;28;20021;-72
2022/12/12 07:53:03;;;;;;;36.00;13.60;;;;;;;-3.94;86.17;101098.31;5067994;28;20084;-73
2022/12/12 07:55:29;;;;;;;31.80;11.38;;;;;;;-3.97;86.47;101090.47;5065953;28;20680;-72
2022/12/12 07:57:54;;;;;;;31.38;11.65;;;;;;;-3.99;86.75;101098.34;5064005;28;20036;-72
2022/12/12 08:00:20;;;;;;;30.38;13.35;;;;;;;-4.01;86.39;101107.13;5067565;28;20052;-72
2022/12/12 08:02:46;;;;;;;34.30;13.35;;;;;;;-4.07;86.49;101098.44;5066448;28;20025;-73
2022/12/12 08:05:11;;;;;;;34.08;14.20;;;;;;;-4.07;86.59;101108.94;5064891;28;20024;-73
2022/12/12 08:07:36;;;;;;;35.97;14.32;;;;;;;-4.07;86.72;101111.56;5066307;28;20036;-72
2022/12/12 08:10:03;;;;;;;32.20;15.05;;;;;;;-4.04;86.46;101115.91;5064353;28;20088;-73
2022/12/12 08:12:29;;;;;;;31.98;12.75;;;;;;;-4.02;86.50;101121.16;5060819;28;20029;-72
2022/12/12 08:14:54;;;;;;;34.25;13.45;;;;;;;-3.99;87.00;101116.72;5064077;28;20029;-72
2022/12/12 08:17:20;;;;;;;31.85;12.95;;;;;;;-3.99;87.09;101119.34;5064730;28;20028;-73
2022/12/12 08:19:45;;;;;;;33.60;13.43;;;;;;;-3.99;87.69;101118.50;5065565;28;20084;-73
2022/12/12 08:22:11;;;;;;;33.15;13.10;;;;;;;-3.95;88.08;101118.44;5064082;28;20025;-72
2022/12/12 08:24:36;;;;;;;31.38;12.30;;;;;;;-3.91;87.85;101111.41;5062991;28;20025;-73
2022/12/12 08:27:01;;;;;;;32.33;15.30;;;;;;;-3.89;88.08;101121.00;5068886;28;20039;-72
2022/12/12 08:29:27;;;;;;;31.25;12.80;;;;;;;-3.88;87.80;101121.88;5062956;28;20047;-73
2022/12/12 08:31:52;;;;;;;31.35;12.65;;;;;;;-3.87;88.23;101124.47;5058276;28;20035;-72
2022/12/12 08:34:17;;;;;;;36.47;13.32;;;;;;;-3.86;88.63;101133.25;5046006;28;20079;-73
2022/12/12 08:36:44;;;;;;;34.00;14.85;;;;;;;-3.83;88.57;101127.09;5066960;28;20047;-72
2022/12/12 08:39:12;;;;;;;37.22;15.80;;;;;;;-3.79;88.82;101121.81;5065219;28;20492;-73
2022/12/12 08:41:40;;;;;;;36.60;15.52;;;;;;;-3.75;88.37;101122.63;5064845;28;20033;-74
2022/12/12 08:44:07;;;;;;;35.72;13.40;;;;;;;-3.71;88.07;101126.97;5067359;28;20127;-74
2022/12/12 08:46:33;;;;;;;31.73;13.52;;;;;;;-3.64;88.63;101123.41;5067689;28;20033;-73
2022/12/12 08:48:58;;;;;;;33.13;14.00;;;;;;;-3.60;88.77;101125.13;5067096;28;20120;-72
2022/12/12 08:51:23;;;;;;;32.63;14.23;;;;;;;-3.53;89.25;101125.91;5059189;28;20472;-75
2022/12/12 08:53:51;;;;;;;38.40;14.95;;;;;;;-3.46;88.97;101129.34;5062848;28;20040;-72
2022/12/12 08:56:17;;;;;;;33.28;13.57;;;;;;;-3.41;89.20;101128.41;5060764;28;20025;-73
2022/12/12 08:58:42;;;;;;;32.67;13.27;;;;;;;-3.36;89.60;101129.22;5058991;28;20396;-73
2022/12/12 09:01:10;;;;;;;31.35;13.13;;;;;;;-3.28;88.94;101137.03;5058437;28;20025;-72
2022/12/12 09:03:35;;;;;;;34.38;14.80;;;;;;;-3.24;89.30;101136.09;5061747;28;20055;-73
2022/12/12 09:06:01;;;;;;;34.42;14.15;;;;;;;-3.19;89.50;101138.69;5046306;28;20021;-73
2022/12/12 09:08:26;;;;;;;32.10;13.05;;;;;;;-3.12;89.67;101137.69;5068239;28;20037;-72
2022/12/12 09:10:51;;;;;;;35.40;13.57;;;;;;;-3.04;90.14;101130.59;5042366;28;20029;-72
2022/12/12 09:13:17;;;;;;;32.88;13.52;;;;;;;-2.94;90.03;101139.25;5064154;28;20460;-71
2022/12/12 09:15:42;;;;;;;30.50;13.65;;;;;;;-2.86;89.87;101141.78;5064640;28;20115;-69
2022/12/12 09:18:08;;;;;;;36.22;13.93;;;;;;;-2.81;89.86;101138.19;5039692;28;20392;-71
2022/12/12 09:20:33;;;;;;;31.88;13.32;;;;;;;-2.72;89.48;101136.34;5057405;28;20025;-71
2022/12/12 09:22:58;;;;;;;32.88;14.07;;;;;;;-2.67;89.42;101139.78;5058799;28;20489;-71
2022/12/12 09:25:24;;;;;;;31.23;12.60;;;;;;;-2.63;89.31;101134.44;5062809;28;20041;-71
2022/12/12 09:27:49;;;;;;;39.63;19.55;;;;;;;-2.60;89.54;101145.84;5062515;28;20057;-70
2022/12/12 09:30:15;;;;;;;31.80;12.63;;;;;;;-2.55;89.50;101139.59;5043572;28;20497;-70
2022/12/12 09:32:41;;;;;;;33.15;13.70;;;;;;;-2.49;89.03;101143.91;5051285;28;20455;-71
2022/12/12 09:35:06;;;;;;;33.95;14.40;;;;;;;-2.43;89.42;101137.69;5056843;28;20021;-71
2022/12/12 09:37:32;;;;;;;33.65;14.32;;;;;;;-2.40;88.82;101137.63;5061935;28;20047;-71
2022/12/12 09:39:57;;;;;;;32.08;13.50;;;;;;;-2.37;88.90;101138.47;5064890;28;20025;-73
2022/12/12 09:42:28;;;;;;;31.95;13.43;;;;;;;-2.30;89.02;101139.22;5061898;28;20036;-71
2022/12/12 09:45:04;;;;;;;29.33;12.98;;;;;;;-2.25;88.84;101133.91;5060899;28;20380;-71
2022/12/12 09:47:38;;;;;;;33.10;14.50;;;;;;;-2.24;88.68;101133.88;5063392;28;20033;-71
2022/12/12 09:50:32;;;;;;;33.40;12.50;;;;;;;-2.19;89.05;101134.66;5064756;28;20033;-73
2022/12/12 09:53:01;;;;;;;30.90;12.55;;;;;;;-2.14;88.89;101135.47;5056409;28;20037;-71
2022/12/12 09:55:30;;;;;;;32.77;12.77;;;;;;;-2.09;88.84;101131.88;5046891;28;20037;-71
2022/12/12 09:58:04;;;;;;;29.02;13.05;;;;;;;-2.07;89.30;101130.09;5066724;28;20049;-72
2022/12/12 10:00:37;;;;;;;31.25;13.70;;;;;;;-2.02;89.11;101128.25;5061783;28;20044;-71
2022/12/12 10:03:38;;;;;;;34.33;14.15;;;;;;;-1.96;88.99;101128.16;5060972;28;20033;-70
2022/12/12 10:06:07;;;;;;;29.58;12.27;;;;;;;-1.93;88.47;101133.38;5043881;28;20035;-71
2022/12/12 10:08:39;;;;;;;28.85;11.52;;;;;;;-1.89;88.38;101135.03;5061854;28;20039;-72
2022/12/12 10:11:48;;;;;;;29.35;12.70;;;;;;;-1.84;88.97;101127.94;5062293;28;20100;-71
2022/12/12 10:13:55;;;;;;;30.50;12.82;;;;;;;-1.74;88.39;101131.31;5062290;28;20029;-71
2022/12/12 10:16:21;;;;;;;38.33;11.70;;;;;;;-1.66;88.12;101131.16;5061838;28;20032;-71
2022/12/12 10:18:50;;;;;;;29.85;13.55;;;;;;;-1.59;87.84;101132.78;5062047;28;20024;-70
2022/12/12 10:21:29;;;;;;;31.65;15.20;;;;;;;-1.51;87.64;101125.56;5062167;28;20025;-71
2022/12/12 10:24:06;;;;;;;30.88;13.15;;;;;;;-1.46;87.61;101123.75;5062565;28;20035;-72
2022/12/12 10:26:31;;;;;;;32.35;13.85;;;;;;;-1.40;88.19;101128.03;5046350;28;20116;-71
2022/12/12 10:29:21;;;;;;;29.50;12.48;;;;;;;-1.34;88.24;101122.63;5063694;28;20103;-71
2022/12/12 10:32:04;;;;;;;28.83;11.82;;;;;;;-1.31;87.57;101127.84;5048871;28;20040;-70
2022/12/12 10:34:55;;;;;;;30.08;12.73;;;;;;;-1.25;87.78;101117.16;5056573;28;20037;-72
2022/12/12 10:37:37;;;;;;;32.10;13.82;;;;;;;-1.24;87.32;101118.06;5039067;28;20017;-71
2022/12/12 10:40:23;;;;;;;51.25;12.65;;;;;;;-1.21;87.35;101115.34;5059471;28;20029;-71
2022/12/12 10:43:05;;;;;;;32.00;12.63;;;;;;;-1.19;86.82;101112.69;5060460;28;20049;-71
2022/12/12 10:45:56;;;;;;;28.02;12.75;;;;;;;-1.12;86.84;101101.13;5063620;28;20025;-71
2022/12/12 10:48:21;;;;;;;35.33;16.67;;;;;;;-1.10;86.70;101108.09;5063177;28;20037;-71
2022/12/12 10:50:52;;;;;;;29.13;12.23;;;;;;;-1.08;86.37;101101.00;5063426;28;20033;-70
2022/12/12 10:53:19;;;;;;;30.13;11.80;;;;;;;-1.04;86.49;101107.06;5063884;28;20020;-71
2022/12/12 10:55:57;;;;;;;32.00;12.48;;;;;;;-1.01;86.10;101111.44;5044741;28;20104;-71
2022/12/12 10:58:26;;;;;;;30.45;12.60;;;;;;;-0.98;86.19;101114.00;5056390;28;20116;-70
2022/12/12 11:01:00;;;;;;;30.33;11.75;;;;;;;-0.93;86.24;101112.16;5061311;28;20419;-71
2022/12/12 11:03:31;;;;;;;28.05;11.73;;;;;;;-0.91;86.28;101111.22;5060306;28;20029;-72
2022/12/12 11:06:06;;;;;;;28.23;11.52;;;;;;;-0.86;85.50;101115.50;5064326;28;20021;-72
2022/12/12 11:08:34;;;;;;;30.35;12.95;;;;;;;-0.82;85.20;101110.16;5064605;28;20025;-71
2022/12/12 11:11:21;;;;;;;30.40;11.32;;;;;;;-0.78;85.28;101106.50;5060304;28;20052;-72
2022/12/12 11:13:52;;;;;;;29.73;10.85;;;;;;;-0.74;85.14;101097.63;5052978;28;20071;-70
2022/12/12 11:16:22;;;;;;;27.10;12.65;;;;;;;-0.71;85.61;101105.47;5054498;28;20039;-72
2022/12/12 11:18:58;;;;;;;26.25;11.50;;;;;;;-0.68;84.61;101095.78;5064311;28;20060;-71
2022/12/12 11:21:24;;;;;;;28.10;10.85;;;;;;;-0.65;84.64;101087.78;5043960;28;20029;-73
2022/12/12 11:23:55;;;;;;;29.95;11.57;;;;;;;-0.62;84.38;101093.84;5061724;28;20029;-70
2022/12/12 11:26:21;;;;;;;28.35;11.57;;;;;;;-0.58;84.41;101102.56;5059476;28;20108;-72
2022/12/12 11:29:01;;;;;;;28.27;12.25;;;;;;;-0.52;84.97;101098.94;5060436;28;20130;-70
2022/12/12 11:31:31;;;;;;;;;;;;;;;-0.44;85.54;101095.22;5063239;28;20112;-75
2022/12/12 11:34:00;;;;;;;30.33;11.20;;;;;;;-0.43;83.56;101091.63;5043786;28;19962;-73
2022/12/12 11:36:51;;;;;;;28.50;10.70;;;;;;;-0.36;84.51;101087.94;5055236;28;20052;-71
2022/12/12 11:39:34;;;;;;;26.23;10.75;;;;;;;-0.33;83.58;101091.44;5056650;28;20041;-72
2022/12/12 11:42:15;;;;;;;24.55;10.23;;;;;;;-0.32;83.26;101078.19;5041184;28;20039;-71
2022/12/12 11:44:42;;;;;;;27.20;10.88;;;;;;;-0.28;83.81;101078.97;5054625;28;20043;-72
2022/12/12 11:47:20;;;;;;;26.98;10.38;;;;;;;-0.24;82.99;101084.13;5060566;28;20549;-72